sensor_id;sensor_type;location;lat;lon;timestamp;P1;durP1;ratioP1;P2;durP2;ratioP2
45236;SDS011;30973;51.442;3.580;2022-08-11T00:01:57;6.82;;;3.53;;
45236;SDS011;30973;51.442;3.580;2022-08-11T00:04:27;6.00;;;3.53;;
45236;SDS011;30973;51.442;3.580;2022-08-11T00:07:01;4.97;;;3.15;;
45236;SDS011;30973;51.442;3.580;2022-08-11T00:09:34;4.70;;;3.10;;
45236;SDS011;30973;51.442;3.580;2022-08-11T00:12:11;5.47;;;3.33;;
45236;SDS011;30973;51.442;3.580;2022-08-11T00:14:39;4.80;;;3.35;;
45236;SDS011;30973;51.442;3.580;2022-08-11T00:17:08;7.03;;;3.50;;
45236;SDS011;30973;51.442;3.580;2022-08-11T00:19:38;11.75;;;4.00;;
45236;SDS011;30973;51.442;3.580;2022-08-11T00:22:27;8.35;;;3.42;;
45236;SDS011;30973;51.442;3.580;2022-08-11T00:24:55;5.95;;;3.60;;
45236;SDS011;30973;51.442;3.580;2022-08-11T00:27:34;7.13;;;3.30;;
45236;SDS011;30973;51.442;3.580;2022-08-11T00:30:03;7.88;;;3.70;;
45236;SDS011;30973;51.442;3.580;2022-08-11T00:32:31;4.13;;;3.10;;
45236;SDS011;30973;51.442;3.580;2022-08-11T00:35:00;4.70;;;3.35;;
45236;SDS011;30973;51.442;3.580;2022-08-11T00:37:49;8.18;;;3.70;;
45236;SDS011;30973;51.442;3.580;2022-08-11T00:40:23;6.93;;;3.45;;
45236;SDS011;30973;51.442;3.580;2022-08-11T00:51:12;5.30;;;3.17;;
45236;SDS011;30973;51.442;3.580;2022-08-11T01:02:13;4.10;;;3.25;;
45236;SDS011;30973;51.442;3.580;2022-08-11T01:07:41;6.60;;;3.38;;
45236;SDS011;30973;51.442;3.580;2022-08-11T01:31:55;5.85;;;3.42;;
45236;SDS011;30973;51.442;3.580;2022-08-11T01:37:29;5.38;;;3.42;;
45236;SDS011;30973;51.442;3.580;2022-08-11T01:40:10;7.35;;;3.42;;
45236;SDS011;30973;51.442;3.580;2022-08-11T01:45:39;4.38;;;3.30;;
45236;SDS011;30973;51.442;3.580;2022-08-11T01:50:49;4.50;;;3.33;;
45236;SDS011;30973;51.442;3.580;2022-08-11T01:53:23;6.45;;;3.10;;
45236;SDS011;30973;51.442;3.580;2022-08-11T01:56:10;5.43;;;3.65;;
45236;SDS011;30973;51.442;3.580;2022-08-11T02:01:13;4.20;;;3.17;;
45236;SDS011;30973;51.442;3.580;2022-08-11T02:03:49;4.97;;;3.50;;
45236;SDS011;30973;51.442;3.580;2022-08-11T02:11:38;5.10;;;3.40;;
45236;SDS011;30973;51.442;3.580;2022-08-11T02:27:47;4.03;;;3.10;;
45236;SDS011;30973;51.442;3.580;2022-08-11T02:30:19;4.57;;;3.30;;
45236;SDS011;30973;51.442;3.580;2022-08-11T02:32:49;6.43;;;3.22;;
45236;SDS011;30973;51.442;3.580;2022-08-11T02:38:16;5.20;;;3.13;;
45236;SDS011;30973;51.442;3.580;2022-08-11T02:40:47;5.75;;;3.63;;
45236;SDS011;30973;51.442;3.580;2022-08-11T02:59:48;5.97;;;4.07;;
45236;SDS011;30973;51.442;3.580;2022-08-11T03:10:12;7.18;;;3.70;;
45236;SDS011;30973;51.442;3.580;2022-08-11T03:15:28;4.60;;;3.78;;
45236;SDS011;30973;51.442;3.580;2022-08-11T03:18:28;4.03;;;3.60;;
45236;SDS011;30973;51.442;3.580;2022-08-11T03:21:10;4.78;;;3.45;;
45236;SDS011;30973;51.442;3.580;2022-08-11T03:26:25;6.47;;;4.13;;
45236;SDS011;30973;51.442;3.580;2022-08-11T03:31:33;5.90;;;3.47;;
45236;SDS011;30973;51.442;3.580;2022-08-11T03:34:03;7.68;;;3.70;;
45236;SDS011;30973;51.442;3.580;2022-08-11T03:39:43;6.40;;;3.72;;
45236;SDS011;30973;51.442;3.580;2022-08-11T03:47:23;7.07;;;3.72;;
45236;SDS011;30973;51.442;3.580;2022-08-11T03:50:12;4.95;;;3.90;;
45236;SDS011;30973;51.442;3.580;2022-08-11T03:52:51;5.43;;;3.80;;
45236;SDS011;30973;51.442;3.580;2022-08-11T03:55:45;5.28;;;4.28;;
45236;SDS011;30973;51.442;3.580;2022-08-11T04:11:35;7.82;;;4.15;;
45236;SDS011;30973;51.442;3.580;2022-08-11T04:25:22;6.05;;;3.85;;
45236;SDS011;30973;51.442;3.580;2022-08-11T04:33:33;6.53;;;4.13;;
45236;SDS011;30973;51.442;3.580;2022-08-11T04:58:14;5.63;;;4.20;;
45236;SDS011;30973;51.442;3.580;2022-08-11T05:01:17;5.80;;;4.18;;
45236;SDS011;30973;51.442;3.580;2022-08-11T05:09:27;6.28;;;3.88;;
45236;SDS011;30973;51.442;3.580;2022-08-11T05:12:03;8.80;;;4.32;;
45236;SDS011;30973;51.442;3.580;2022-08-11T05:14:33;8.30;;;4.22;;
45236;SDS011;30973;51.442;3.580;2022-08-11T05:17:26;7.18;;;4.32;;
45236;SDS011;30973;51.442;3.580;2022-08-11T05:20:16;8.02;;;4.18;;
45236;SDS011;30973;51.442;3.580;2022-08-11T05:23:04;6.65;;;4.40;;
45236;SDS011;30973;51.442;3.580;2022-08-11T05:26:02;6.40;;;4.55;;
45236;SDS011;30973;51.442;3.580;2022-08-11T05:29:26;6.05;;;4.25;;
45236;SDS011;30973;51.442;3.580;2022-08-11T05:32:14;8.25;;;4.50;;
45236;SDS011;30973;51.442;3.580;2022-08-11T05:35:02;9.40;;;5.00;;
45236;SDS011;30973;51.442;3.580;2022-08-11T05:37:40;10.55;;;5.20;;
45236;SDS011;30973;51.442;3.580;2022-08-11T05:40:10;6.55;;;4.85;;
45236;SDS011;30973;51.442;3.580;2022-08-11T05:43:00;7.90;;;4.45;;
45236;SDS011;30973;51.442;3.580;2022-08-11T05:45:57;7.60;;;4.78;;
45236;SDS011;30973;51.442;3.580;2022-08-11T05:48:44;8.90;;;4.25;;
45236;SDS011;30973;51.442;3.580;2022-08-11T05:51:34;7.72;;;4.35;;
45236;SDS011;30973;51.442;3.580;2022-08-11T05:54:31;9.23;;;4.90;;
45236;SDS011;30973;51.442;3.580;2022-08-11T05:57:20;5.75;;;4.00;;
45236;SDS011;30973;51.442;3.580;2022-08-11T06:00:09;7.38;;;5.13;;
45236;SDS011;30973;51.442;3.580;2022-08-11T06:02:39;6.63;;;4.57;;
45236;SDS011;30973;51.442;3.580;2022-08-11T06:05:07;9.65;;;4.20;;
45236;SDS011;30973;51.442;3.580;2022-08-11T06:07:37;8.80;;;4.45;;
45236;SDS011;30973;51.442;3.580;2022-08-11T06:13:14;7.57;;;4.53;;
45236;SDS011;30973;51.442;3.580;2022-08-11T06:15:46;5.68;;;4.60;;
45236;SDS011;30973;51.442;3.580;2022-08-11T06:18:14;6.97;;;4.65;;
45236;SDS011;30973;51.442;3.580;2022-08-11T06:20:50;9.05;;;4.57;;
45236;SDS011;30973;51.442;3.580;2022-08-11T06:23:20;6.25;;;4.80;;
45236;SDS011;30973;51.442;3.580;2022-08-11T06:25:51;7.05;;;5.15;;
45236;SDS011;30973;51.442;3.580;2022-08-11T06:28:31;6.82;;;4.82;;
45236;SDS011;30973;51.442;3.580;2022-08-11T06:31:01;7.88;;;4.80;;
45236;SDS011;30973;51.442;3.580;2022-08-11T06:33:34;10.43;;;5.30;;
45236;SDS011;30973;51.442;3.580;2022-08-11T06:36:10;6.80;;;4.90;;
45236;SDS011;30973;51.442;3.580;2022-08-11T06:46:45;7.75;;;4.70;;
45236;SDS011;30973;51.442;3.580;2022-08-11T06:49:15;6.30;;;4.13;;
45236;SDS011;30973;51.442;3.580;2022-08-11T06:52:09;5.90;;;4.20;;
45236;SDS011;30973;51.442;3.580;2022-08-11T06:54:59;8.93;;;4.47;;
45236;SDS011;30973;51.442;3.580;2022-08-11T06:57:32;6.93;;;4.20;;
45236;SDS011;30973;51.442;3.580;2022-08-11T07:00:19;7.00;;;4.15;;
45236;SDS011;30973;51.442;3.580;2022-08-11T07:03:07;6.15;;;4.22;;
45236;SDS011;30973;51.442;3.580;2022-08-11T07:05:38;9.85;;;4.55;;
45236;SDS011;30973;51.442;3.580;2022-08-11T07:08:24;7.40;;;3.95;;
45236;SDS011;30973;51.442;3.580;2022-08-11T07:11:22;11.85;;;4.03;;
45236;SDS011;30973;51.442;3.580;2022-08-11T07:14:12;7.90;;;3.65;;
45236;SDS011;30973;51.442;3.580;2022-08-11T07:17:06;5.53;;;4.05;;
45236;SDS011;30973;51.442;3.580;2022-08-11T07:19:35;9.00;;;3.85;;
45236;SDS011;30973;51.442;3.580;2022-08-11T07:22:23;7.55;;;3.90;;
45236;SDS011;30973;51.442;3.580;2022-08-11T07:25:13;7.55;;;3.55;;
45236;SDS011;30973;51.442;3.580;2022-08-11T07:28:01;8.50;;;3.35;;
45236;SDS011;30973;51.442;3.580;2022-08-11T07:30:51;7.70;;;3.15;;
45236;SDS011;30973;51.442;3.580;2022-08-11T07:33:24;5.65;;;3.13;;
45236;SDS011;30973;51.442;3.580;2022-08-11T07:36:14;5.63;;;3.40;;
45236;SDS011;30973;51.442;3.580;2022-08-11T07:38:43;6.63;;;3.53;;
45236;SDS011;30973;51.442;3.580;2022-08-11T07:41:14;12.57;;;4.60;;
45236;SDS011;30973;51.442;3.580;2022-08-11T07:43:44;7.05;;;3.30;;
45236;SDS011;30973;51.442;3.580;2022-08-11T07:46:14;8.65;;;3.40;;
45236;SDS011;30973;51.442;3.580;2022-08-11T07:49:02;7.35;;;3.40;;
45236;SDS011;30973;51.442;3.580;2022-08-11T07:51:50;6.72;;;3.30;;
45236;SDS011;30973;51.442;3.580;2022-08-11T07:54:38;5.88;;;3.13;;
45236;SDS011;30973;51.442;3.580;2022-08-11T07:57:09;7.30;;;3.45;;
45236;SDS011;30973;51.442;3.580;2022-08-11T08:00:24;5.88;;;3.45;;
45236;SDS011;30973;51.442;3.580;2022-08-11T08:03:17;5.93;;;3.03;;
45236;SDS011;30973;51.442;3.580;2022-08-11T08:06:19;6.60;;;3.30;;
45236;SDS011;30973;51.442;3.580;2022-08-11T08:09:06;5.38;;;3.20;;
45236;SDS011;30973;51.442;3.580;2022-08-11T08:11:54;4.88;;;3.17;;
45236;SDS011;30973;51.442;3.580;2022-08-11T08:14:40;7.25;;;3.75;;
45236;SDS011;30973;51.442;3.580;2022-08-11T08:17:28;6.95;;;3.38;;
45236;SDS011;30973;51.442;3.580;2022-08-11T08:20:38;7.28;;;3.08;;
45236;SDS011;30973;51.442;3.580;2022-08-11T08:23:06;10.00;;;3.25;;
45236;SDS011;30973;51.442;3.580;2022-08-11T08:25:35;6.38;;;2.80;;
45236;SDS011;30973;51.442;3.580;2022-08-11T08:28:04;7.57;;;3.67;;
45236;SDS011;30973;51.442;3.580;2022-08-11T08:30:33;21.98;;;3.38;;
45236;SDS011;30973;51.442;3.580;2022-08-11T08:33:14;11.30;;;4.18;;
45236;SDS011;30973;51.442;3.580;2022-08-11T08:35:44;6.35;;;3.25;;
45236;SDS011;30973;51.442;3.580;2022-08-11T08:38:21;9.05;;;3.35;;
45236;SDS011;30973;51.442;3.580;2022-08-11T08:40:51;4.53;;;3.60;;
45236;SDS011;30973;51.442;3.580;2022-08-11T08:43:22;8.45;;;3.65;;
45236;SDS011;30973;51.442;3.580;2022-08-11T08:45:51;10.82;;;3.42;;
45236;SDS011;30973;51.442;3.580;2022-08-11T08:48:22;9.63;;;3.60;;
45236;SDS011;30973;51.442;3.580;2022-08-11T08:51:01;12.98;;;4.00;;
45236;SDS011;30973;51.442;3.580;2022-08-11T08:53:49;6.57;;;3.30;;
45236;SDS011;30973;51.442;3.580;2022-08-11T08:56:25;6.03;;;3.83;;
45236;SDS011;30973;51.442;3.580;2022-08-11T08:58:57;9.32;;;3.90;;
45236;SDS011;30973;51.442;3.580;2022-08-11T09:01:27;6.82;;;3.78;;
45236;SDS011;30973;51.442;3.580;2022-08-11T09:03:56;8.35;;;3.75;;
45236;SDS011;30973;51.442;3.580;2022-08-11T09:06:33;12.45;;;4.28;;
45236;SDS011;30973;51.442;3.580;2022-08-11T09:09:01;11.75;;;3.80;;
45236;SDS011;30973;51.442;3.580;2022-08-11T09:11:30;6.22;;;3.65;;
45236;SDS011;30973;51.442;3.580;2022-08-11T09:14:17;10.45;;;3.65;;
45236;SDS011;30973;51.442;3.580;2022-08-11T09:16:45;8.30;;;3.85;;
45236;SDS011;30973;51.442;3.580;2022-08-11T09:19:13;9.65;;;3.90;;
45236;SDS011;30973;51.442;3.580;2022-08-11T09:21:44;11.10;;;4.28;;
45236;SDS011;30973;51.442;3.580;2022-08-11T09:24:33;8.13;;;3.70;;
45236;SDS011;30973;51.442;3.580;2022-08-11T09:27:20;11.23;;;4.10;;
45236;SDS011;30973;51.442;3.580;2022-08-11T09:29:49;8.23;;;4.20;;
45236;SDS011;30973;51.442;3.580;2022-08-11T09:32:19;9.25;;;4.25;;
45236;SDS011;30973;51.442;3.580;2022-08-11T09:34:48;8.10;;;3.67;;
45236;SDS011;30973;51.442;3.580;2022-08-11T09:37:20;9.50;;;3.90;;
45236;SDS011;30973;51.442;3.580;2022-08-11T09:40:22;8.98;;;4.20;;
45236;SDS011;30973;51.442;3.580;2022-08-11T09:42:57;8.93;;;3.70;;
45236;SDS011;30973;51.442;3.580;2022-08-11T09:45:47;7.65;;;3.90;;
45236;SDS011;30973;51.442;3.580;2022-08-11T09:48:18;8.68;;;3.63;;
45236;SDS011;30973;51.442;3.580;2022-08-11T09:50:49;7.05;;;3.35;;
45236;SDS011;30973;51.442;3.580;2022-08-11T09:53:18;6.82;;;3.20;;
45236;SDS011;30973;51.442;3.580;2022-08-11T09:56:04;4.97;;;3.60;;
45236;SDS011;30973;51.442;3.580;2022-08-11T09:58:52;6.25;;;3.67;;
45236;SDS011;30973;51.442;3.580;2022-08-11T10:01:21;8.55;;;3.42;;
45236;SDS011;30973;51.442;3.580;2022-08-11T10:04:00;8.23;;;3.20;;
45236;SDS011;30973;51.442;3.580;2022-08-11T10:06:30;6.78;;;3.42;;
45236;SDS011;30973;51.442;3.580;2022-08-11T10:09:20;7.50;;;3.50;;
45236;SDS011;30973;51.442;3.580;2022-08-11T10:11:55;8.38;;;3.20;;
45236;SDS011;30973;51.442;3.580;2022-08-11T10:14:25;8.27;;;3.17;;
45236;SDS011;30973;51.442;3.580;2022-08-11T10:17:13;7.75;;;3.10;;
45236;SDS011;30973;51.442;3.580;2022-08-11T10:19:42;7.18;;;3.00;;
45236;SDS011;30973;51.442;3.580;2022-08-11T10:22:29;5.68;;;3.00;;
45236;SDS011;30973;51.442;3.580;2022-08-11T10:25:16;5.63;;;3.10;;
45236;SDS011;30973;51.442;3.580;2022-08-11T10:28:03;5.25;;;3.03;;
45236;SDS011;30973;51.442;3.580;2022-08-11T10:30:54;6.72;;;2.83;;
45236;SDS011;30973;51.442;3.580;2022-08-11T10:33:43;8.63;;;2.60;;
45236;SDS011;30973;51.442;3.580;2022-08-11T10:36:31;8.65;;;2.88;;
45236;SDS011;30973;51.442;3.580;2022-08-11T10:39:00;5.40;;;2.72;;
45236;SDS011;30973;51.442;3.580;2022-08-11T10:41:28;6.72;;;2.33;;
45236;SDS011;30973;51.442;3.580;2022-08-11T10:44:46;5.68;;;2.10;;
45236;SDS011;30973;51.442;3.580;2022-08-11T10:47:17;4.97;;;2.38;;
45236;SDS011;30973;51.442;3.580;2022-08-11T10:50:15;3.92;;;2.45;;
45236;SDS011;30973;51.442;3.580;2022-08-11T10:53:02;5.22;;;2.30;;
45236;SDS011;30973;51.442;3.580;2022-08-11T10:55:49;7.78;;;2.45;;
45236;SDS011;30973;51.442;3.580;2022-08-11T10:58:36;6.00;;;2.90;;
45236;SDS011;30973;51.442;3.580;2022-08-11T11:01:15;4.68;;;2.78;;
45236;SDS011;30973;51.442;3.580;2022-08-11T11:03:44;6.00;;;2.88;;
45236;SDS011;30973;51.442;3.580;2022-08-11T11:08:56;5.95;;;3.00;;
45236;SDS011;30973;51.442;3.580;2022-08-11T11:11:32;3.45;;;2.58;;
45236;SDS011;30973;51.442;3.580;2022-08-11T11:14:19;5.72;;;3.17;;
45236;SDS011;30973;51.442;3.580;2022-08-11T11:17:18;3.97;;;2.63;;
45236;SDS011;30973;51.442;3.580;2022-08-11T11:19:53;5.78;;;2.60;;
45236;SDS011;30973;51.442;3.580;2022-08-11T11:22:23;8.60;;;2.78;;
45236;SDS011;30973;51.442;3.580;2022-08-11T11:27:35;5.18;;;2.38;;
45236;SDS011;30973;51.442;3.580;2022-08-11T11:30:12;4.03;;;2.50;;
45236;SDS011;30973;51.442;3.580;2022-08-11T11:32:43;4.10;;;2.78;;
45236;SDS011;30973;51.442;3.580;2022-08-11T11:38:02;3.17;;;2.47;;
45236;SDS011;30973;51.442;3.580;2022-08-11T11:40:39;8.10;;;2.55;;
45236;SDS011;30973;51.442;3.580;2022-08-11T11:43:08;5.90;;;2.35;;
45236;SDS011;30973;51.442;3.580;2022-08-11T11:45:39;4.30;;;2.70;;
45236;SDS011;30973;51.442;3.580;2022-08-11T11:48:08;3.88;;;2.30;;
45236;SDS011;30973;51.442;3.580;2022-08-11T11:50:38;8.75;;;2.17;;
45236;SDS011;30973;51.442;3.580;2022-08-11T11:53:06;3.25;;;2.17;;
45236;SDS011;30973;51.442;3.580;2022-08-11T11:55:35;4.22;;;2.20;;
45236;SDS011;30973;51.442;3.580;2022-08-11T11:58:03;3.75;;;2.65;;
45236;SDS011;30973;51.442;3.580;2022-08-11T12:00:51;7.70;;;2.35;;
45236;SDS011;30973;51.442;3.580;2022-08-11T12:03:38;5.18;;;2.30;;
45236;SDS011;30973;51.442;3.580;2022-08-11T12:06:07;5.90;;;2.65;;
45236;SDS011;30973;51.442;3.580;2022-08-11T12:08:37;6.00;;;2.42;;
45236;SDS011;30973;51.442;3.580;2022-08-11T12:11:06;7.80;;;2.50;;
45236;SDS011;30973;51.442;3.580;2022-08-11T12:13:57;6.20;;;2.60;;
45236;SDS011;30973;51.442;3.580;2022-08-11T12:16:36;6.97;;;2.60;;
45236;SDS011;30973;51.442;3.580;2022-08-11T12:19:10;5.88;;;2.38;;
45236;SDS011;30973;51.442;3.580;2022-08-11T12:21:42;5.07;;;2.63;;
45236;SDS011;30973;51.442;3.580;2022-08-11T12:24:29;9.30;;;2.58;;
45236;SDS011;30973;51.442;3.580;2022-08-11T12:27:30;9.40;;;2.95;;
45236;SDS011;30973;51.442;3.580;2022-08-11T12:29:58;7.43;;;2.70;;
45236;SDS011;30973;51.442;3.580;2022-08-11T12:32:32;5.93;;;2.53;;
45236;SDS011;30973;51.442;3.580;2022-08-11T12:35:02;6.85;;;2.63;;
45236;SDS011;30973;51.442;3.580;2022-08-11T12:37:38;6.13;;;2.38;;
45236;SDS011;30973;51.442;3.580;2022-08-11T12:40:11;4.32;;;2.30;;
45236;SDS011;30973;51.442;3.580;2022-08-11T12:43:20;4.82;;;2.40;;
45236;SDS011;30973;51.442;3.580;2022-08-11T12:46:21;6.25;;;2.45;;
45236;SDS011;30973;51.442;3.580;2022-08-11T12:48:51;4.95;;;2.38;;
45236;SDS011;30973;51.442;3.580;2022-08-11T12:51:52;4.82;;;2.70;;
45236;SDS011;30973;51.442;3.580;2022-08-11T12:57:38;4.68;;;2.45;;
45236;SDS011;30973;51.442;3.580;2022-08-11T13:00:29;5.03;;;2.60;;
45236;SDS011;30973;51.442;3.580;2022-08-11T13:03:18;7.50;;;2.65;;
45236;SDS011;30973;51.442;3.580;2022-08-11T13:06:05;3.20;;;2.88;;
45236;SDS011;30973;51.442;3.580;2022-08-11T13:08:34;3.15;;;2.30;;
45236;SDS011;30973;51.442;3.580;2022-08-11T13:11:03;4.18;;;2.67;;
45236;SDS011;30973;51.442;3.580;2022-08-11T13:14:10;4.55;;;2.50;;
45236;SDS011;30973;51.442;3.580;2022-08-11T13:16:41;4.60;;;2.80;;
45236;SDS011;30973;51.442;3.580;2022-08-11T13:19:28;4.75;;;2.90;;
45236;SDS011;30973;51.442;3.580;2022-08-11T13:21:58;5.07;;;2.50;;
45236;SDS011;30973;51.442;3.580;2022-08-11T13:24:28;4.57;;;2.65;;
45236;SDS011;30973;51.442;3.580;2022-08-11T13:26:59;5.57;;;2.60;;
45236;SDS011;30973;51.442;3.580;2022-08-11T13:29:28;4.53;;;2.63;;
45236;SDS011;30973;51.442;3.580;2022-08-11T13:31:56;5.65;;;2.88;;
45236;SDS011;30973;51.442;3.580;2022-08-11T13:34:26;7.97;;;2.78;;
45236;SDS011;30973;51.442;3.580;2022-08-11T13:37:02;6.47;;;2.75;;
45236;SDS011;30973;51.442;3.580;2022-08-11T13:39:31;5.03;;;2.83;;
45236;SDS011;30973;51.442;3.580;2022-08-11T13:42:00;4.78;;;2.40;;
45236;SDS011;30973;51.442;3.580;2022-08-11T13:44:30;5.80;;;3.00;;
45236;SDS011;30973;51.442;3.580;2022-08-11T13:47:02;6.78;;;2.80;;
45236;SDS011;30973;51.442;3.580;2022-08-11T13:49:33;4.70;;;2.85;;
45236;SDS011;30973;51.442;3.580;2022-08-11T13:52:07;7.18;;;3.00;;
45236;SDS011;30973;51.442;3.580;2022-08-11T13:54:38;7.20;;;2.80;;
45236;SDS011;30973;51.442;3.580;2022-08-11T13:57:10;5.25;;;3.08;;
45236;SDS011;30973;51.442;3.580;2022-08-11T14:00:00;4.38;;;2.80;;
45236;SDS011;30973;51.442;3.580;2022-08-11T14:02:41;6.00;;;2.58;;
45236;SDS011;30973;51.442;3.580;2022-08-11T14:05:14;4.03;;;3.00;;
45236;SDS011;30973;51.442;3.580;2022-08-11T14:07:45;6.05;;;3.17;;
45236;SDS011;30973;51.442;3.580;2022-08-11T14:10:19;8.88;;;2.90;;
45236;SDS011;30973;51.442;3.580;2022-08-11T14:12:52;5.72;;;2.83;;
45236;SDS011;30973;51.442;3.580;2022-08-11T14:16:25;5.00;;;2.72;;
45236;SDS011;30973;51.442;3.580;2022-08-11T14:19:06;8.07;;;2.97;;
45236;SDS011;30973;51.442;3.580;2022-08-11T14:21:40;6.63;;;3.08;;
45236;SDS011;30973;51.442;3.580;2022-08-11T14:24:37;5.60;;;3.00;;
45236;SDS011;30973;51.442;3.580;2022-08-11T14:27:06;6.67;;;3.00;;
45236;SDS011;30973;51.442;3.580;2022-08-11T14:29:57;5.25;;;3.10;;
45236;SDS011;30973;51.442;3.580;2022-08-11T14:32:25;7.85;;;2.80;;
45236;SDS011;30973;51.442;3.580;2022-08-11T14:34:53;4.93;;;2.83;;
45236;SDS011;30973;51.442;3.580;2022-08-11T14:37:21;8.80;;;2.80;;
45236;SDS011;30973;51.442;3.580;2022-08-11T14:39:52;6.63;;;3.13;;
45236;SDS011;30973;51.442;3.580;2022-08-11T14:42:28;4.32;;;2.65;;
45236;SDS011;30973;51.442;3.580;2022-08-11T14:45:15;8.27;;;3.00;;
45236;SDS011;30973;51.442;3.580;2022-08-11T14:48:21;13.00;;;3.35;;
45236;SDS011;30973;51.442;3.580;2022-08-11T14:50:49;5.80;;;2.90;;
45236;SDS011;30973;51.442;3.580;2022-08-11T14:53:18;7.47;;;2.72;;
45236;SDS011;30973;51.442;3.580;2022-08-11T14:55:49;6.13;;;2.95;;
45236;SDS011;30973;51.442;3.580;2022-08-11T14:58:38;3.45;;;2.70;;
45236;SDS011;30973;51.442;3.580;2022-08-11T15:01:06;5.45;;;3.28;;
45236;SDS011;30973;51.442;3.580;2022-08-11T15:03:54;7.63;;;2.85;;
45236;SDS011;30973;51.442;3.580;2022-08-11T15:06:43;7.10;;;2.80;;
45236;SDS011;30973;51.442;3.580;2022-08-11T15:09:12;4.50;;;2.80;;
45236;SDS011;30973;51.442;3.580;2022-08-11T15:11:40;9.18;;;3.05;;
45236;SDS011;30973;51.442;3.580;2022-08-11T15:14:27;8.38;;;2.85;;
45236;SDS011;30973;51.442;3.580;2022-08-11T15:17:21;4.87;;;2.70;;
45236;SDS011;30973;51.442;3.580;2022-08-11T15:19:56;5.20;;;2.70;;
45236;SDS011;30973;51.442;3.580;2022-08-11T15:22:44;5.80;;;3.08;;
45236;SDS011;30973;51.442;3.580;2022-08-11T15:25:43;4.75;;;2.80;;
45236;SDS011;30973;51.442;3.580;2022-08-11T15:28:14;7.32;;;2.90;;
45236;SDS011;30973;51.442;3.580;2022-08-11T15:31:03;4.55;;;2.67;;
45236;SDS011;30973;51.442;3.580;2022-08-11T15:33:50;3.38;;;2.67;;
45236;SDS011;30973;51.442;3.580;2022-08-11T15:36:44;4.57;;;2.72;;
45236;SDS011;30973;51.442;3.580;2022-08-11T15:39:46;5.63;;;2.90;;
45236;SDS011;30973;51.442;3.580;2022-08-11T15:46:05;4.75;;;2.50;;
45236;SDS011;30973;51.442;3.580;2022-08-11T15:48:45;4.97;;;2.80;;
45236;SDS011;30973;51.442;3.580;2022-08-11T15:51:18;7.32;;;2.80;;
45236;SDS011;30973;51.442;3.580;2022-08-11T15:53:56;4.35;;;2.60;;
45236;SDS011;30973;51.442;3.580;2022-08-11T15:56:25;5.95;;;2.70;;
45236;SDS011;30973;51.442;3.580;2022-08-11T15:58:56;7.45;;;3.28;;
45236;SDS011;30973;51.442;3.580;2022-08-11T16:02:05;5.10;;;2.60;;
45236;SDS011;30973;51.442;3.580;2022-08-11T16:05:00;10.63;;;2.85;;
45236;SDS011;30973;51.442;3.580;2022-08-11T16:07:32;5.75;;;2.70;;
45236;SDS011;30973;51.442;3.580;2022-08-11T16:10:07;6.65;;;2.83;;
45236;SDS011;30973;51.442;3.580;2022-08-11T16:12:45;5.07;;;2.80;;
45236;SDS011;30973;51.442;3.580;2022-08-11T16:15:34;4.90;;;2.42;;
45236;SDS011;30973;51.442;3.580;2022-08-11T16:18:24;5.03;;;2.60;;
45236;SDS011;30973;51.442;3.580;2022-08-11T16:21:12;6.25;;;2.40;;
45236;SDS011;30973;51.442;3.580;2022-08-11T16:24:02;4.45;;;2.67;;
45236;SDS011;30973;51.442;3.580;2022-08-11T16:26:32;5.88;;;2.38;;
45236;SDS011;30973;51.442;3.580;2022-08-11T16:29:23;4.60;;;2.40;;
45236;SDS011;30973;51.442;3.580;2022-08-11T16:31:53;5.30;;;2.33;;
45236;SDS011;30973;51.442;3.580;2022-08-11T16:34:45;7.38;;;2.53;;
45236;SDS011;30973;51.442;3.580;2022-08-11T16:37:39;5.43;;;2.60;;
45236;SDS011;30973;51.442;3.580;2022-08-11T16:40:27;2.95;;;2.47;;
45236;SDS011;30973;51.442;3.580;2022-08-11T16:42:57;3.92;;;2.58;;
45236;SDS011;30973;51.442;3.580;2022-08-11T16:45:44;3.78;;;2.55;;
45236;SDS011;30973;51.442;3.580;2022-08-11T16:48:31;3.97;;;2.33;;
45236;SDS011;30973;51.442;3.580;2022-08-11T16:51:05;4.20;;;2.58;;
45236;SDS011;30973;51.442;3.580;2022-08-11T16:53:33;4.25;;;2.42;;
45236;SDS011;30973;51.442;3.580;2022-08-11T16:56:31;4.18;;;2.50;;
45236;SDS011;30973;51.442;3.580;2022-08-11T16:59:31;4.30;;;2.35;;
45236;SDS011;30973;51.442;3.580;2022-08-11T17:02:09;5.38;;;2.47;;
45236;SDS011;30973;51.442;3.580;2022-08-11T17:05:02;4.57;;;2.50;;
45236;SDS011;30973;51.442;3.580;2022-08-11T17:07:54;3.28;;;2.13;;
45236;SDS011;30973;51.442;3.580;2022-08-11T17:10:47;2.97;;;1.88;;
45236;SDS011;30973;51.442;3.580;2022-08-11T17:13:39;4.25;;;2.42;;
45236;SDS011;30973;51.442;3.580;2022-08-11T17:16:33;5.47;;;2.33;;
45236;SDS011;30973;51.442;3.580;2022-08-11T17:19:11;6.53;;;2.55;;
45236;SDS011;30973;51.442;3.580;2022-08-11T17:21:44;4.32;;;2.47;;
45236;SDS011;30973;51.442;3.580;2022-08-11T17:24:34;5.13;;;2.50;;
45236;SDS011;30973;51.442;3.580;2022-08-11T17:27:04;6.60;;;2.50;;
45236;SDS011;30973;51.442;3.580;2022-08-11T17:29:35;4.72;;;2.58;;
45236;SDS011;30973;51.442;3.580;2022-08-11T17:32:39;5.75;;;2.60;;
45236;SDS011;30973;51.442;3.580;2022-08-11T17:35:35;6.20;;;2.60;;
45236;SDS011;30973;51.442;3.580;2022-08-11T17:41:14;7.80;;;2.70;;
45236;SDS011;30973;51.442;3.580;2022-08-11T17:43:54;4.53;;;2.40;;
45236;SDS011;30973;51.442;3.580;2022-08-11T17:46:41;5.47;;;3.30;;
45236;SDS011;30973;51.442;3.580;2022-08-11T17:49:32;5.72;;;2.75;;
45236;SDS011;30973;51.442;3.580;2022-08-11T17:52:05;5.37;;;3.03;;
45236;SDS011;30973;51.442;3.580;2022-08-11T17:54:56;4.03;;;2.50;;
45236;SDS011;30973;51.442;3.580;2022-08-11T17:58:03;5.97;;;2.55;;
45236;SDS011;30973;51.442;3.580;2022-08-11T18:00:50;4.35;;;2.58;;
45236;SDS011;30973;51.442;3.580;2022-08-11T18:03:20;5.07;;;2.72;;
45236;SDS011;30973;51.442;3.580;2022-08-11T18:06:06;6.13;;;3.25;;
45236;SDS011;30973;51.442;3.580;2022-08-11T18:08:42;4.35;;;2.90;;
45236;SDS011;30973;51.442;3.580;2022-08-11T18:11:31;6.07;;;2.72;;
45236;SDS011;30973;51.442;3.580;2022-08-11T18:14:37;8.32;;;3.22;;
45236;SDS011;30973;51.442;3.580;2022-08-11T18:17:26;4.05;;;2.65;;
45236;SDS011;30973;51.442;3.580;2022-08-11T18:20:12;7.57;;;2.90;;
45236;SDS011;30973;51.442;3.580;2022-08-11T18:22:58;5.93;;;2.53;;
45236;SDS011;30973;51.442;3.580;2022-08-11T18:26:08;7.22;;;2.80;;
45236;SDS011;30973;51.442;3.580;2022-08-11T18:28:56;3.40;;;2.22;;
45236;SDS011;30973;51.442;3.580;2022-08-11T18:31:46;7.70;;;2.33;;
45236;SDS011;30973;51.442;3.580;2022-08-11T18:34:35;4.32;;;2.08;;
45236;SDS011;30973;51.442;3.580;2022-08-11T18:37:28;7.63;;;2.70;;
45236;SDS011;30973;51.442;3.580;2022-08-11T18:40:21;4.70;;;2.40;;
45236;SDS011;30973;51.442;3.580;2022-08-11T18:43:11;3.53;;;2.03;;
45236;SDS011;30973;51.442;3.580;2022-08-11T18:46:03;5.88;;;2.50;;
45236;SDS011;30973;51.442;3.580;2022-08-11T18:48:52;6.18;;;2.42;;
45236;SDS011;30973;51.442;3.580;2022-08-11T18:51:52;5.03;;;2.45;;
45236;SDS011;30973;51.442;3.580;2022-08-11T18:54:42;7.28;;;2.83;;
45236;SDS011;30973;51.442;3.580;2022-08-11T18:57:37;5.35;;;2.40;;
45236;SDS011;30973;51.442;3.580;2022-08-11T19:00:25;8.00;;;2.58;;
45236;SDS011;30973;51.442;3.580;2022-08-11T19:03:13;5.30;;;2.60;;
45236;SDS011;30973;51.442;3.580;2022-08-11T19:06:16;5.93;;;2.38;;
45236;SDS011;30973;51.442;3.580;2022-08-11T19:09:07;4.22;;;2.63;;
45236;SDS011;30973;51.442;3.580;2022-08-11T19:11:57;6.22;;;2.53;;
45236;SDS011;30973;51.442;3.580;2022-08-11T19:14:44;4.10;;;2.38;;
45236;SDS011;30973;51.442;3.580;2022-08-11T19:17:34;5.13;;;2.63;;
45236;SDS011;30973;51.442;3.580;2022-08-11T19:20:25;5.93;;;2.28;;
45236;SDS011;30973;51.442;3.580;2022-08-11T19:23:14;5.07;;;2.72;;
45236;SDS011;30973;51.442;3.580;2022-08-11T19:26:03;5.75;;;2.50;;
45236;SDS011;30973;51.442;3.580;2022-08-11T19:28:51;6.85;;;2.95;;
45236;SDS011;30973;51.442;3.580;2022-08-11T19:31:59;4.50;;;2.78;;